Time;durP1;ratioP1;P1;durP2;ratioP2;P2;SDS_P1;SDS_P2;PMS_P1;PMS_P2;Temp;Humidity;BMP_temperature;BMP_pressure;BME280_temperature;BME280_humidity;BME280_pressure;Samples;Min_cycle;Max_cycle;Signal;HPM_P1;HPM_P2
2023/11/18 00:01:30;;;;;;;4.90;3.08;;;20.80;40.80;;;;;;5031684;28;20025;-59
2023/11/18 00:03:56;;;;;;;3.40;2.78;;;20.90;40.80;;;;;;5032000;28;20035;-56
2023/11/18 00:06:22;;;;;;;3.88;3.20;;;20.90;40.90;;;;;;5034573;28;20372;-58
2023/11/18 00:08:47;;;;;;;3.22;2.58;;;20.80;40.90;;;;;;5034373;28;20026;-57
2023/11/18 00:11:13;;;;;;;3.63;2.88;;;20.80;40.90;;;;;;5031837;28;20030;-52
2023/11/18 00:13:39;;;;;;;4.30;3.17;;;20.80;40.90;;;;;;5029527;28;20124;-57
2023/11/18 00:16:06;;;;;;;4.10;3.30;;;20.80;40.90;;;;;;5014522;28;20233;-56
2023/11/18 00:18:32;;;;;;;4.10;3.30;;;20.80;41.00;;;;;;5036468;28;20116;-57
2023/11/18 00:20:59;;;;;;;5.00;3.25;;;20.80;41.00;;;;;;5032934;28;20121;-59
2023/11/18 00:23:26;;;;;;;4.30;3.30;;;20.80;41.00;;;;;;5032936;28;20072;-54
2023/11/18 00:25:53;;;;;;;3.75;3.05;;;20.80;41.10;;;;;;5014320;28;20045;-57
2023/11/18 00:28:19;;;;;;;3.47;3.05;;;20.80;41.10;;;;;;5015267;28;20029;-57
2023/11/18 00:30:45;;;;;;;3.65;2.90;;;20.80;41.10;;;;;;5034026;28;20057;-58
2023/11/18 00:33:11;;;;;;;3.80;2.40;;;20.80;41.10;;;;;;5033968;28;20025;-55
2023/11/18 00:35:37;;;;;;;4.50;3.00;;;20.80;41.10;;;;;;5032765;28;20018;-58
2023/11/18 00:38:03;;;;;;;3.33;2.60;;;20.70;41.10;;;;;;5036325;28;20356;-54
2023/11/18 00:40:30;;;;;;;3.28;2.75;;;20.70;41.10;;;;;;5036944;28;20120;-54
2023/11/18 00:42:56;;;;;;;3.45;2.83;;;20.70;41.10;;;;;;5034890;28;20021;-56
2023/11/18 00:45:22;;;;;;;3.33;2.75;;;20.70;41.10;;;;;;5018933;28;20108;-55
2023/11/18 00:47:48;;;;;;;3.33;2.78;;;20.70;41.10;;;;;;5018689;28;20166;-56
2023/11/18 00:50:14;;;;;;;3.60;2.85;;;20.70;41.10;;;;;;5038567;28;20029;-57
2023/11/18 00:52:43;;;;;;;3.40;2.72;;;20.70;41.10;;;;;;5037217;28;20104;-58
2023/11/18 00:55:10;;;;;;;3.60;2.80;;;20.70;41.10;;;;;;5034035;28;20018;-55
2023/11/18 00:57:40;;;;;;;4.10;3.00;;;20.70;41.10;;;;;;5038784;28;20026;-55
2023/11/18 01:00:09;;;;;;;3.63;2.90;;;20.70;41.10;;;;;;5020764;28;20033;-55
2023/11/18 01:02:35;;;;;;;3.22;2.60;;;20.70;41.10;;;;;;5034448;28;20040;-58
2023/11/18 01:05:01;;;;;;;3.45;2.63;;;20.70;41.10;;;;;;5034714;28;20029;-56
2023/11/18 01:07:27;;;;;;;4.75;3.10;;;20.70;41.10;;;;;;5036886;28;20115;-57
2023/11/18 01:09:53;;;;;;;3.80;2.90;;;20.60;41.10;;;;;;5020445;28;20027;-55
2023/11/18 01:12:20;;;;;;;4.60;3.13;;;20.70;41.10;;;;;;5035529;28;20103;-54
2023/11/18 01:14:46;;;;;;;4.82;2.90;;;20.60;41.00;;;;;;5018393;28;20479;-54
2023/11/18 01:17:13;;;;;;;3.33;2.80;;;20.60;41.00;;;;;;5018019;28;20041;-55
2023/11/18 01:19:39;;;;;;;4.10;2.90;;;20.60;41.00;;;;;;5040722;28;20041;-53
2023/11/18 01:22:05;;;;;;;3.47;2.92;;;20.60;41.00;;;;;;5048283;28;20109;-55
2023/11/18 01:24:35;;;;;;;3.80;3.03;;;20.60;41.00;;;;;;5034296;28;20049;-57
2023/11/18 01:27:01;;;;;;;2.92;2.35;;;20.60;41.00;;;;;;5035746;28;21779;-57
2023/11/18 01:29:26;;;;;;;3.65;2.67;;;20.60;41.00;;;;;;5016826;28;20044;-57
2023/11/18 01:31:55;;;;;;;3.40;3.00;;;20.60;41.00;;;;;;5015728;28;20025;-54
2023/11/18 01:34:21;;;;;;;4.57;3.00;;;20.60;41.00;;;;;;5036086;28;20055;-55
2023/11/18 01:36:51;;;;;;;2.90;2.60;;;20.60;40.90;;;;;;5033066;28;20029;-53
2023/11/18 01:39:17;;;;;;;3.47;2.88;;;20.60;40.90;;;;;;5037860;28;20121;-58
2023/11/18 01:41:45;;;;;;;3.80;2.90;;;20.60;41.00;;;;;;5035256;28;20029;-55
2023/11/18 01:44:13;;;;;;;4.22;2.97;;;20.60;40.90;;;;;;5047829;28;20041;-54
2023/11/18 01:46:41;;;;;;;4.72;3.25;;;20.60;40.90;;;;;;5016377;28;20031;-60
2023/11/18 01:49:08;;;;;;;2.88;2.38;;;20.50;40.80;;;;;;5012684;28;20045;-56
2023/11/18 01:51:35;;;;;;;4.15;3.28;;;20.50;40.80;;;;;;5003159;28;20030;-58
2023/11/18 01:54:05;;;;;;;4.88;3.05;;;20.50;40.80;;;;;;5021088;28;20025;-58
2023/11/18 01:56:32;;;;;;;4.28;3.25;;;20.50;40.80;;;;;;5014534;28;20028;-54
2023/11/18 01:58:58;;;;;;;3.20;2.60;;;20.50;40.90;;;;;;5017563;28;20080;-58
2023/11/18 02:01:27;;;;;;;3.72;2.90;;;20.50;40.80;;;;;;5029785;28;20025;-58
2023/11/18 02:03:53;;;;;;;4.38;2.88;;;20.50;40.90;;;;;;5015744;28;20033;-57
2023/11/18 02:06:21;;;;;;;4.05;2.88;;;20.50;40.90;;;;;;5018305;28;20025;-55
2023/11/18 02:08:47;;;;;;;4.20;3.53;;;20.50;40.90;;;;;;5018253;28;20096;-54
2023/11/18 02:11:26;;;;;;;3.45;2.90;;;20.50;40.90;;;;;;5018286;28;20063;-54
2023/11/18 02:13:54;;;;;;;3.63;2.88;;;20.50;40.90;;;;;;5018052;28;20088;-54
2023/11/18 02:16:22;;;;;;;2.90;2.40;;;20.50;40.90;;;;;;5032835;28;20021;-53
2023/11/18 02:18:49;;;;;;;3.53;2.83;;;20.40;40.90;;;;;;5020168;28;20060;-57
2023/11/18 02:21:16;;;;;;;3.10;2.67;;;20.40;41.00;;;;;;5017535;28;20036;-52
2023/11/18 02:23:42;;;;;;;3.75;3.13;;;20.40;40.90;;;;;;5016426;28;20083;-56
2023/11/18 02:26:09;;;;;;;4.47;3.05;;;20.50;41.00;;;;;;5014430;28;20330;-56
2023/11/18 02:28:35;;;;;;;4.40;3.60;;;20.50;41.00;;;;;;5038709;28;20032;-58
2023/11/18 02:31:15;;;;;;;3.33;2.55;;;20.40;41.00;;;;;;5031158;28;20191;-55
2023/11/18 02:33:56;;;;;;;3.65;2.72;;;20.50;41.00;;;;;;5032244;28;20035;-57
2023/11/18 02:36:36;;;;;;;3.83;3.08;;;20.50;41.60;;;;;;5015147;28;20035;-54
2023/11/18 02:39:08;;;;;;;3.83;3.13;;;20.40;41.00;;;;;;5032834;28;20068;-58
2023/11/18 02:41:39;;;;;;;3.78;3.17;;;20.40;41.00;;;;;;5034346;28;20035;-56
2023/11/18 02:44:10;;;;;;;3.83;2.95;;;20.40;41.00;;;;;;5035261;28;20030;-57
2023/11/18 02:46:39;;;;;;;5.28;3.53;;;20.40;41.00;;;;;;5022248;28;20067;-57
2023/11/18 02:49:07;;;;;;;3.70;3.17;;;20.40;41.00;;;;;;5033237;28;20061;-59
2023/11/18 02:51:38;;;;;;;4.30;3.58;;;20.40;41.10;;;;;;5033727;28;20083;-57
2023/11/18 02:54:06;;;;;;;4.45;3.40;;;20.40;41.10;;;;;;5012983;28;20025;-55
2023/11/18 02:56:32;;;;;;;4.72;3.33;;;20.40;41.10;;;;;;5013478;28;20115;-51
2023/11/18 02:59:00;;;;;;;5.18;3.30;;;20.40;41.10;;;;;;5033094;28;20041;-56
2023/11/18 03:01:27;;;;;;;4.03;3.38;;;20.40;41.00;;;;;;5016239;28;20034;-56
2023/11/18 03:03:54;;;;;;;5.05;3.85;;;20.40;41.10;;;;;;5035238;28;20025;-58
2023/11/18 03:06:20;;;;;;;4.35;3.65;;;20.40;41.10;;;;;;5036544;28;20120;-54
2023/11/18 03:08:46;;;;;;;4.40;3.65;;;20.40;41.10;;;;;;5036848;28;20049;-52
2023/11/18 03:11:12;;;;;;;4.10;3.50;;;20.30;41.00;;;;;;5014019;28;20045;-56
2023/11/18 03:13:38;;;;;;;4.88;3.60;;;20.40;41.10;;;;;;5015557;28;20073;-53
2023/11/18 03:16:12;;;;;;;5.00;3.92;;;20.30;41.10;;;;;;5030634;28;20457;-58
2023/11/18 03:18:42;;;;;;;4.50;3.72;;;20.30;41.10;;;;;;5034010;28;20096;-57
2023/11/18 03:21:12;;;;;;;6.53;3.83;;;20.30;41.10;;;;;;5031406;28;20021;-55
2023/11/18 03:23:40;;;;;;;5.70;4.13;;;20.40;41.20;;;;;;4998305;28;20026;-54
2023/11/18 03:26:07;;;;;;;5.50;4.20;;;20.30;41.10;;;;;;5019937;28;20057;-59
2023/11/18 03:28:33;;;;;;;5.10;3.83;;;20.30;41.10;;;;;;5018819;28;20026;-57
2023/11/18 03:30:59;;;;;;;4.55;3.95;;;20.30;41.10;;;;;;5014048;28;20026;-57
2023/11/18 03:33:25;;;;;;;4.85;3.67;;;20.30;41.10;;;;;;5016905;28;20107;-58
2023/11/18 03:35:51;;;;;;;6.07;4.40;;;20.30;41.20;;;;;;5017597;28;21647;-60
2023/11/18 03:38:17;;;;;;;4.28;3.50;;;20.30;41.10;;;;;;5030154;28;20025;-56
2023/11/18 03:40:45;;;;;;;5.80;4.30;;;20.30;41.20;;;;;;5031029;28;20048;-56
2023/11/18 03:43:11;;;;;;;5.10;3.67;;;20.30;41.20;;;;;;5046121;28;20041;-52
2023/11/18 03:45:40;;;;;;;4.75;4.25;;;20.30;41.20;;;;;;5031595;28;20033;-57
2023/11/18 03:48:07;;;;;;;4.80;3.92;;;20.30;41.20;;;;;;5033044;28;20449;-57
2023/11/18 03:50:34;;;;;;;5.50;4.20;;;20.30;41.20;;;;;;5032058;28;20088;-59
2023/11/18 03:53:03;;;;;;;5.45;4.28;;;20.30;41.20;;;;;;5027874;28;20033;-58
2023/11/18 03:55:30;;;;;;;5.53;4.47;;;20.30;41.30;;;;;;5028475;28;20414;-57
2023/11/18 03:57:57;;;;;;;5.18;3.88;;;20.30;41.20;;;;;;5032670;28;20436;-54
2023/11/18 04:00:31;;;;;;;5.47;4.30;;;20.30;41.20;;;;;;5044674;28;20341;-58
2023/11/18 04:02:58;;;;;;;6.00;4.80;;;20.30;41.30;;;;;;5015777;28;20013;-54
2023/11/18 04:05:24;;;;;;;5.97;4.72;;;20.30;41.20;;;;;;5031642;28;20025;-54
2023/11/18 04:07:50;;;;;;;5.05;4.00;;;20.20;41.20;;;;;;5022960;28;20132;-57
2023/11/18 04:10:18;;;;;;;5.97;4.90;;;20.20;41.30;;;;;;5030783;28;20422;-59
2023/11/18 04:12:46;;;;;;;5.35;4.40;;;20.30;41.40;;;;;;5017404;28;20038;-58
2023/11/18 04:15:13;;;;;;;5.60;4.35;;;20.30;41.40;;;;;;5012343;28;20146;-58
2023/11/18 04:17:40;;;;;;;5.53;4.28;;;20.20;41.30;;;;;;5014067;28;20025;-57
2023/11/18 04:20:10;;;;;;;6.75;4.82;;;20.20;41.30;;;;;;5014202;28;20046;-58
2023/11/18 04:22:43;;;;;;;5.03;3.97;;;20.20;41.30;;;;;;5030480;28;20077;-60
2023/11/18 04:25:11;;;;;;;6.15;4.57;;;20.20;41.30;;;;;;4995579;28;20034;-57
2023/11/18 04:27:40;;;;;;;5.28;4.45;;;20.20;41.30;;;;;;5031330;28;20021;-56
2023/11/18 04:30:06;;;;;;;5.65;4.47;;;20.20;41.30;;;;;;5014633;28;20511;-60
2023/11/18 04:32:32;;;;;;;6.07;4.80;;;20.20;41.30;;;;;;5029488;28;20025;-58
2023/11/18 04:34:59;;;;;;;5.38;4.53;;;20.20;41.40;;;;;;4997262;28;20032;-60
2023/11/18 04:37:26;;;;;;;5.32;4.43;;;20.20;41.40;;;;;;5014553;28;20033;-59
2023/11/18 04:39:55;;;;;;;5.85;4.30;;;20.20;41.40;;;;;;5033665;28;20042;-59
2023/11/18 04:42:21;;;;;;;5.53;3.72;;;20.20;41.40;;;;;;5011569;28;20025;-56
2023/11/18 04:44:47;;;;;;;5.38;4.65;;;20.20;41.40;;;;;;5043848;28;20360;-57
2023/11/18 04:47:12;;;;;;;5.85;4.53;;;20.20;41.40;;;;;;5032737;28;20025;-57
2023/11/18 04:49:39;;;;;;;5.45;4.68;;;20.20;41.40;;;;;;4996313;28;20034;-59
2023/11/18 04:52:06;;;;;;;5.15;4.50;;;20.20;41.40;;;;;;5031668;28;20113;-56
2023/11/18 04:54:32;;;;;;;5.68;4.68;;;20.20;41.40;;;;;;5014652;28;20446;-55
2023/11/18 04:56:58;;;;;;;5.03;4.18;;;20.20;41.30;;;;;;5030990;28;20107;-55
2023/11/18 04:59:23;;;;;;;5.63;4.40;;;20.20;41.40;;;;;;5025395;28;20041;-54
2023/11/18 05:01:52;;;;;;;5.60;4.70;;;20.20;41.40;;;;;;5031563;28;20485;-53
2023/11/18 05:04:18;;;;;;;5.20;4.53;;;20.20;41.40;;;;;;5012908;28;20422;-57
2023/11/18 05:06:44;;;;;;;5.20;4.47;;;20.20;41.40;;;;;;5031902;28;20029;-59
2023/11/18 05:09:10;;;;;;;5.72;4.47;;;20.20;41.40;;;;;;5031174;28;20037;-56
2023/11/18 05:11:36;;;;;;;6.43;4.28;;;20.20;41.40;;;;;;5029768;28;20090;-58
2023/11/18 05:14:03;;;;;;;5.47;4.38;;;20.20;41.40;;;;;;5031257;28;20038;-54
2023/11/18 05:16:30;;;;;;;4.53;4.10;;;20.20;41.50;;;;;;5027614;28;20036;-55
2023/11/18 05:18:56;;;;;;;5.28;3.85;;;20.20;41.50;;;;;;5032764;28;20191;-59
2023/11/18 05:21:21;;;;;;;5.05;4.28;;;20.20;41.40;;;;;;5029665;28;20112;-57
2023/11/18 05:23:47;;;;;;;5.55;3.92;;;20.20;41.50;;;;;;5011555;28;20508;-55
2023/11/18 05:26:14;;;;;;;4.50;3.65;;;20.20;41.50;;;;;;5032795;28;20376;-54
2023/11/18 05:28:40;;;;;;;4.82;4.05;;;20.20;41.50;;;;;;5031371;28;20025;-51
2023/11/18 05:31:06;;;;;;;4.28;3.40;;;20.20;41.50;;;;;;5014932;28;20036;-53
2023/11/18 05:33:34;;;;;;;4.93;4.00;;;20.20;41.50;;;;;;5032901;28;20339;-56
2023/11/18 05:36:00;;;;;;;4.65;3.83;;;20.10;41.40;;;;;;5015730;28;20025;-58
2023/11/18 05:38:28;;;;;;;5.05;3.65;;;20.20;41.50;;;;;;5037637;28;20029;-56
2023/11/18 05:40:56;;;;;;;4.32;3.72;;;20.20;41.50;;;;;;5040711;28;20048;-57
2023/11/18 05:43:29;;;;;;;4.88;3.80;;;20.20;41.50;;;;;;5044943;28;20057;-59
2023/11/18 05:48:44;;;;;;;5.63;4.20;;;20.20;41.50;;;;;;5034205;28;20030;-57
2023/11/18 05:51:11;;;;;;;4.32;3.63;;;20.20;41.50;;;;;;5042486;28;20573;-56
2023/11/18 05:53:47;;;;;;;5.18;3.92;;;20.20;41.50;;;;;;5022347;28;20025;-58
2023/11/18 05:56:13;;;;;;;5.07;4.20;;;20.10;41.50;;;;;;5042614;28;20035;-57
2023/11/18 05:58:40;;;;;;;4.43;3.75;;;20.10;41.50;;;;;;5033803;28;20112;-55
2023/11/18 06:01:10;;;;;;;5.00;3.53;;;20.10;41.50;;;;;;5021545;28;20024;-56
2023/11/18 06:03:39;;;;;;;4.82;3.90;;;20.10;41.50;;;;;;5040881;28;20044;-57
2023/11/18 06:06:10;;;;;;;4.65;3.58;;;20.10;41.50;;;;;;5017972;28;20022;-56
2023/11/18 06:08:40;;;;;;;4.70;3.85;;;20.10;41.40;;;;;;5032175;28;21973;-57
2023/11/18 06:11:13;;;;;;;4.22;3.22;;;20.10;41.40;;;;;;5039996;28;20116;-58
2023/11/18 06:13:51;;;;;;;3.80;3.25;;;20.10;41.40;;;;;;5040615;28;20055;-59
2023/11/18 06:16:24;;;;;;;4.82;3.55;;;20.10;41.40;;;;;;5033151;28;20064;-55
2023/11/18 06:18:58;;;;;;;4.05;3.65;;;20.10;41.40;;;;;;5040110;28;20025;-57
2023/11/18 06:21:29;;;;;;;6.25;3.63;;;20.10;41.30;;;;;;5035619;28;20030;-58
2023/11/18 06:23:56;;;;;;;4.28;3.40;;;20.10;41.40;;;;;;5038207;28;20086;-58
2023/11/18 06:26:33;;;;;;;3.60;3.17;;;20.10;41.40;;;;;;5039707;28;20025;-56
2023/11/18 06:29:01;;;;;;;4.63;3.28;;;20.10;41.30;;;;;;5037801;28;20168;-55
2023/11/18 06:31:29;;;;;;;3.08;2.75;;;20.10;41.30;;;;;;5035166;28;20433;-57
2023/11/18 06:33:55;;;;;;;3.70;3.05;;;20.10;41.30;;;;;;5038613;28;20032;-55
2023/11/18 06:36:22;;;;;;;4.60;3.25;;;20.10;41.30;;;;;;5020822;28;20043;-59
2023/11/18 06:38:49;;;;;;;3.92;3.20;;;20.10;41.30;;;;;;5020756;28;20470;-56
2023/11/18 06:41:22;;;;;;;3.63;3.13;;;20.10;41.30;;;;;;5038685;28;20124;-58
2023/11/18 06:43:56;;;;;;;5.03;3.35;;;20.10;41.30;;;;;;5041228;28;20028;-54
2023/11/18 06:46:33;;;;;;;4.53;3.10;;;20.10;41.30;;;;;;5042521;28;20028;-53
2023/11/18 06:49:06;;;;;;;4.28;3.00;;;20.10;41.30;;;;;;5024581;28;20295;-58
2023/11/18 06:51:37;;;;;;;4.82;3.50;;;20.10;41.30;;;;;;5038304;28;20068;-59
2023/11/18 06:54:08;;;;;;;4.18;3.05;;;20.10;41.30;;;;;;5042628;28;20045;-57
2023/11/18 06:56:38;;;;;;;4.55;3.50;;;20.10;41.30;;;;;;5018458;28;20467;-57
2023/11/18 06:59:08;;;;;;;4.57;2.85;;;20.10;41.30;;;;;;5033688;28;21595;-54
2023/11/18 07:01:35;;;;;;;4.25;3.28;;;20.10;41.30;;;;;;5041376;28;20463;-58
2023/11/18 07:04:01;;;;;;;4.38;3.05;;;20.10;41.30;;;;;;5037261;28;20026;-56
2023/11/18 07:06:27;;;;;;;3.90;2.60;;;20.10;41.30;;;;;;5031399;28;20510;-57
2023/11/18 07:08:55;;;;;;;3.35;2.70;;;20.10;41.20;;;;;;5033234;28;20035;-57
2023/11/18 07:11:20;;;;;;;3.10;2.60;;;20.10;41.20;;;;;;5021381;28;20445;-57
2023/11/18 07:13:49;;;;;;;4.38;2.50;;;20.10;41.20;;;;;;5034592;28;20103;-58
2023/11/18 07:16:15;;;;;;;3.20;2.50;;;20.10;41.20;;;;;;5039048;28;20033;-57
2023/11/18 07:18:44;;;;;;;4.03;2.63;;;20.10;41.30;;;;;;5013825;28;20032;-59
2023/11/18 07:21:10;;;;;;;3.53;2.33;;;20.00;41.20;;;;;;5032706;28;20555;-55
2023/11/18 07:23:36;;;;;;;3.72;2.50;;;20.10;41.30;;;;;;5030030;28;20029;-59
2023/11/18 07:26:05;;;;;;;4.25;2.72;;;20.00;41.20;;;;;;5016925;28;20125;-59
2023/11/18 07:28:32;;;;;;;4.07;2.72;;;20.00;41.80;;;;;;5029322;28;20108;-57
2023/11/18 07:30:59;;;;;;;3.45;2.22;;;20.00;41.20;;;;;;5040315;28;20498;-56
2023/11/18 07:33:25;;;;;;;2.58;2.13;;;20.00;41.20;;;;;;5038566;28;20037;-55
2023/11/18 07:35:52;;;;;;;3.67;2.72;;;20.00;41.20;;;;;;5033508;28;20029;-54
2023/11/18 07:38:20;;;;;;;2.80;2.40;;;20.00;41.20;;;;;;5043003;28;20358;-59
2023/11/18 07:40:46;;;;;;;3.25;2.35;;;20.00;41.20;;;;;;5039332;28;20036;-58
2023/11/18 07:43:12;;;;;;;3.33;2.35;;;20.00;41.10;;;;;;5030495;28;20106;-55
2023/11/18 07:45:39;;;;;;;2.78;2.10;;;20.00;41.10;;;;;;5017836;28;20045;-59
2023/11/18 07:48:11;;;;;;;3.40;2.50;;;20.00;41.20;;;;;;5036663;28;20028;-57
2023/11/18 07:50:40;;;;;;;3.08;1.90;;;20.00;41.20;;;;;;5017756;28;20033;-57
2023/11/18 07:53:07;;;;;;;2.97;2.25;;;20.00;41.20;;;;;;5029490;28;20018;-58
2023/11/18 07:55:34;;;;;;;1.90;1.52;;;20.00;41.20;;;;;;5030287;28;20025;-56
2023/11/18 07:58:03;;;;;;;3.15;2.25;;;20.00;41.20;;;;;;5030210;28;20098;-57
2023/11/18 08:00:33;;;;;;;3.10;2.10;;;20.00;41.20;;;;;;5032223;28;20400;-55
2023/11/18 08:03:00;;;;;;;3.17;2.20;;;20.00;41.20;;;;;;5015942;28;20026;-59
2023/11/18 08:05:28;;;;;;;3.35;1.95;;;20.00;41.20;;;;;;5016770;28;20033;-60
2023/11/18 08:07:54;;;;;;;2.72;2.13;;;20.00;41.20;;;;;;5031289;28;20108;-58
2023/11/18 08:10:21;;;;;;;2.65;2.22;;;20.00;41.20;;;;;;5030575;28;20021;-60
2023/11/18 08:12:47;;;;;;;3.80;2.30;;;20.00;41.20;;;;;;5022353;28;20033;-59
2023/11/18 08:15:13;;;;;;;3.63;2.33;;;20.00;41.20;;;;;;5039912;28;20526;-53
2023/11/18 08:17:39;;;;;;;3.75;2.10;;;20.00;41.30;;;;;;5031571;28;20034;-57
2023/11/18 08:20:13;;;;;;;3.17;2.20;;;20.00;41.30;;;;;;5038094;28;20111;-56
2023/11/18 08:22:43;;;;;;;2.67;1.98;;;20.00;41.40;;;;;;5019963;28;20029;-59
2023/11/18 08:25:12;;;;;;;3.05;2.20;;;20.00;41.40;;;;;;5037042;28;20384;-56
2023/11/18 08:27:42;;;;;;;3.20;2.33;;;20.00;41.40;;;;;;5038571;28;20017;-58
2023/11/18 08:30:11;;;;;;;3.88;2.67;;;20.00;41.50;;;;;;5037090;28;20021;-60
2023/11/18 08:32:45;;;;;;;3.05;2.30;;;20.00;41.50;;;;;;5036641;28;20664;-61
2023/11/18 08:35:14;;;;;;;2.83;2.28;;;20.00;41.60;;;;;;5038228;28;20025;-60
2023/11/18 08:37:45;;;;;;;2.95;2.33;;;20.00;41.60;;;;;;5045840;28;20037;-56
2023/11/18 08:40:15;;;;;;;3.85;2.50;;;20.00;41.60;;;;;;5044641;28;20036;-57
2023/11/18 08:42:49;;;;;;;3.30;2.40;;;20.00;41.50;;;;;;5048385;28;20340;-58
2023/11/18 08:45:21;;;;;;;3.58;2.08;;;20.00;41.60;;;;;;5043085;28;20033;-59
2023/11/18 08:47:48;;;;;;;3.20;2.25;;;20.00;41.50;;;;;;5040556;28;20038;-61
2023/11/18 08:50:18;;;;;;;3.80;2.75;;;20.00;41.50;;;;;;5047216;28;20052;-59
2023/11/18 08:52:47;;;;;;;2.88;2.35;;;20.00;41.60;;;;;;5042297;28;20035;-59
2023/11/18 08:58:03;;;;;;;3.65;2.53;;;20.00;41.60;;;;;;5032386;28;20021;-59
2023/11/18 09:00:52;;;;;;;4.13;2.72;;;20.00;41.50;;;;;;5022239;28;20056;-58
2023/11/18 09:03:34;;;;;;;4.50;3.22;;;20.10;41.60;;;;;;5024210;28;20114;-58
2023/11/18 09:06:17;;;;;;;2.92;2.38;;;20.00;41.50;;;;;;5040545;28;20041;-59
2023/11/18 09:08:52;;;;;;;4.13;3.08;;;20.10;41.60;;;;;;5036893;28;20045;-58
2023/11/18 09:11:19;;;;;;;3.47;2.55;;;20.00;41.50;;;;;;5040310;28;20044;-62
2023/11/18 09:13:49;;;;;;;5.63;3.20;;;20.10;41.70;;;;;;5037121;28;20403;-60
2023/11/18 09:16:15;;;;;;;3.88;2.83;;;20.10;41.80;;;;;;5049340;28;20036;-60
2023/11/18 09:18:44;;;;;;;4.05;2.75;;;20.10;41.80;;;;;;5016445;28;20101;-59
2023/11/18 09:21:14;;;;;;;4.43;2.78;;;20.10;41.70;;;;;;5033275;28;20033;-59
2023/11/18 09:23:42;;;;;;;4.32;3.08;;;20.10;41.60;;;;;;5036321;28;20112;-61
2023/11/18 09:26:10;;;;;;;4.70;2.70;;;20.10;41.60;;;;;;5033428;28;20033;-60
2023/11/18 09:28:37;;;;;;;4.40;2.72;;;20.10;41.60;;;;;;5031201;28;20037;-60
2023/11/18 09:31:04;;;;;;;3.90;2.78;;;20.10;41.60;;;;;;5037647;28;20033;-59
2023/11/18 09:33:35;;;;;;;4.93;3.58;;;20.10;41.60;;;;;;5057488;28;20105;-60
2023/11/18 09:36:11;;;;;;;4.55;3.05;;;20.10;41.60;;;;;;5047183;28;20022;-59
2023/11/18 09:38:41;;;;;;;4.10;2.70;;;20.10;41.60;;;;;;5037969;28;20043;-61
2023/11/18 09:41:12;;;;;;;3.50;2.60;;;20.10;41.50;;;;;;5037010;28;20409;-61
2023/11/18 09:43:45;;;;;;;4.65;2.92;;;20.10;41.50;;;;;;5036986;28;20028;-60
2023/11/18 09:46:32;;;;;;;4.05;3.03;;;20.10;41.50;;;;;;5042443;28;20025;-60
2023/11/18 09:49:25;;;;;;;2.72;2.30;;;20.10;41.50;;;;;;5038150;28;20387;-59
2023/11/18 09:51:57;;;;;;;4.10;3.08;;;20.10;41.50;;;;;;5022182;28;20407;-56
2023/11/18 09:54:33;;;;;;;3.88;2.75;;;20.10;41.50;;;;;;5033011;28;20027;-59
2023/11/18 09:57:30;;;;;;;3.45;2.90;;;20.10;41.50;;;;;;5048255;28;20460;-60
2023/11/18 10:02:50;;;;;;;3.75;3.10;;;20.10;41.50;;;;;;5048233;28;20021;-60
2023/11/18 10:05:20;;;;;;;3.78;2.70;;;20.10;41.50;;;;;;5045494;28;20063;-58
2023/11/18 10:07:50;;;;;;;3.30;2.60;;;20.10;41.50;;;;;;5047519;28;20039;-58
2023/11/18 10:10:17;;;;;;;4.18;2.70;;;20.10;41.50;;;;;;5029153;28;20356;-59
2023/11/18 10:12:44;;;;;;;3.80;2.97;;;20.10;41.50;;;;;;5050960;28;20035;-59
2023/11/18 10:15:18;;;;;;;4.30;2.80;;;20.10;41.50;;;;;;5048369;28;20048;-58
2023/11/18 10:18:06;;;;;;;4.75;2.80;;;20.10;41.40;;;;;;5041720;28;20113;-58
2023/11/18 10:20:53;;;;;;;3.88;2.45;;;20.10;41.50;;;;;;5046442;28;20029;-58
2023/11/18 10:23:21;;;;;;;3.72;2.50;;;20.10;41.40;;;;;;5030690;28;20052;-56
2023/11/18 10:25:50;;;;;;;4.10;2.30;;;20.10;41.40;;;;;;5032301;28;20121;-60
2023/11/18 10:28:27;;;;;;;3.58;2.55;;;20.10;41.50;;;;;;5046218;28;20048;-60
2023/11/18 10:31:09;;;;;;;3.15;2.22;;;20.10;41.50;;;;;;5044837;28;20021;-56
2023/11/18 10:33:51;;;;;;;3.40;2.50;;;20.10;41.50;;;;;;5043515;28;20056;-58
2023/11/18 10:36:27;;;;;;;4.10;2.28;;;20.10;41.50;;;;;;5043566;28;20033;-60
2023/11/18 10:38:56;;;;;;;3.65;2.28;;;20.20;41.50;;;;;;5047554;28;20398;-61
2023/11/18 10:41:25;;;;;;;2.78;2.00;;;20.30;41.50;;;;;;5029389;28;20060;-60
2023/11/18 10:44:06;;;;;;;3.05;2.20;;;20.30;41.50;;;;;;5044014;28;20047;-60
2023/11/18 10:46:32;;;;;;;2.65;1.80;;;20.40;41.50;;;;;;5046858;28;20029;-61
2023/11/18 10:48:58;;;;;;;3.33;1.80;;;20.50;41.50;;;;;;5044767;28;20325;-60
2023/11/18 10:51:26;;;;;;;2.38;1.98;;;20.60;41.50;;;;;;5047732;28;20028;-59
2023/11/18 10:54:05;;;;;;;2.75;1.92;;;20.60;41.50;;;;;;5042277;28;20112;-59
2023/11/18 10:56:32;;;;;;;2.60;1.70;;;20.70;41.50;;;;;;5047164;28;20124;-61
2023/11/18 10:59:06;;;;;;;2.72;1.73;;;20.80;41.40;;;;;;5051482;28;20082;-58
2023/11/18 11:01:33;;;;;;;2.33;1.70;;;20.90;41.40;;;;;;5045405;28;20029;-58
2023/11/18 11:04:04;;;;;;;2.42;1.65;;;21.00;41.40;;;;;;5049114;28;20071;-60
2023/11/18 11:06:31;;;;;;;2.20;1.63;;;21.10;41.40;;;;;;5044307;28;20025;-57
2023/11/18 11:09:08;;;;;;;2.65;1.50;;;21.20;41.30;;;;;;5027447;28;20021;-59
2023/11/18 11:11:40;;;;;;;3.03;1.88;;;21.30;41.30;;;;;;5047235;28;20052;-61
2023/11/18 11:14:08;;;;;;;1.48;1.25;;;21.30;41.20;;;;;;5030478;28;20041;-60
2023/11/18 11:16:43;;;;;;;2.67;1.60;;;21.40;41.10;;;;;;5042546;28;20104;-60
2023/11/18 11:19:37;;;;;;;2.65;1.50;;;21.50;41.10;;;;;;5038114;28;20452;-60
2023/11/18 11:22:15;;;;;;;1.90;1.10;;;21.60;41.00;;;;;;5041450;28;20025;-56
2023/11/18 11:25:10;;;;;;;2.50;1.60;;;21.70;41.10;;;;;;5033050;28;20025;-57
2023/11/18 11:28:02;;;;;;;2.03;1.23;;;21.70;41.10;;;;;;5039004;28;20024;-58
2023/11/18 11:30:31;;;;;;;3.22;1.77;;;21.70;41.10;;;;;;4999885;28;20029;-59
2023/11/18 11:33:40;;;;;;;2.28;1.52;;;21.70;41.10;;;;;;5038689;28;20025;-61
2023/11/18 11:36:11;;;;;;;1.48;1.20;;;21.70;41.10;;;;;;5032416;28;20021;-60
2023/11/18 11:38:39;;;;;;;1.55;1.13;;;21.70;41.10;;;;;;5035175;28;20025;-58
2023/11/18 11:41:08;;;;;;;1.88;1.27;;;21.70;41.10;;;;;;5033563;28;20017;-60
2023/11/18 11:43:34;;;;;;;1.98;1.25;;;21.80;41.10;;;;;;5035738;28;20033;-61
2023/11/18 11:46:10;;;;;;;1.55;1.10;;;21.80;41.10;;;;;;5040024;28;20130;-60
2023/11/18 11:48:38;;;;;;;1.63;1.30;;;21.80;41.10;;;;;;5032142;28;20041;-59
2023/11/18 11:51:20;;;;;;;2.28;1.38;;;21.80;41.00;;;;;;5034942;28;20029;-60
2023/11/18 11:54:16;;;;;;;2.13;1.30;;;21.80;40.90;;;;;;5044922;28;20028;-59
2023/11/18 11:56:47;;;;;;;1.50;1.20;;;21.80;40.90;;;;;;5039550;28;20126;-58
2023/11/18 11:59:16;;;;;;;1.75;1.20;;;21.80;40.90;;;;;;5042980;28;20437;-60
2023/11/18 12:01:46;;;;;;;3.00;1.40;;;21.80;40.80;;;;;;5035677;28;20157;-59
2023/11/18 12:04:21;;;;;;;1.95;1.27;;;21.80;40.80;;;;;;5032094;28;20037;-59
2023/11/18 12:06:48;;;;;;;2.83;1.30;;;21.80;40.70;;;;;;5034846;28;20021;-60
2023/11/18 12:09:19;;;;;;;3.10;1.10;;;21.80;40.70;;;;;;5014332;28;20039;-59
2023/11/18 12:11:49;;;;;;;1.55;1.00;;;21.80;40.70;;;;;;5037723;28;20348;-59
2023/11/18 12:17:13;;;;;;;2.92;1.17;;;21.80;40.70;;;;;;5028763;28;20030;-59
2023/11/18 12:19:56;;;;;;;2.10;1.05;;;21.80;40.70;;;;;;5029565;28;20142;-60
2023/11/18 12:22:33;;;;;;;2.47;1.20;;;21.80;40.70;;;;;;5031917;28;20103;-61
2023/11/18 12:24:58;;;;;;;1.50;1.05;;;21.80;40.70;;;;;;5034777;28;20029;-61
2023/11/18 12:27:40;;;;;;;1.45;1.00;;;21.80;40.70;;;;;;5030185;28;20021;-59
2023/11/18 12:30:30;;;;;;;2.95;1.20;;;21.80;41.00;;;;;;5031973;28;21279;-59
2023/11/18 12:33:08;;;;;;;2.28;1.27;;;21.80;41.30;;;;;;5027693;28;20420;-59
2023/11/18 12:35:51;;;;;;;2.03;1.10;;;21.80;41.30;;;;;;5028996;28;20029;-55
2023/11/18 12:38:28;;;;;;;2.50;1.30;;;21.80;41.20;;;;;;5032816;28;20432;-59
2023/11/18 12:41:02;;;;;;;3.47;1.30;;;21.90;41.20;;;;;;5035338;28;20053;-55
2023/11/18 12:43:47;;;;;;;1.70;1.10;;;21.90;41.20;;;;;;5035870;28;20515;-58
2023/11/18 12:46:31;;;;;;;2.38;1.55;;;21.80;41.10;;;;;;5019325;28;20033;-59
2023/11/18 12:48:59;;;;;;;1.92;1.23;;;21.80;41.10;;;;;;5035042;28;20022;-57
2023/11/18 12:51:26;;;;;;;2.60;1.30;;;21.80;41.10;;;;;;5016644;28;20047;-59
2023/11/18 12:53:53;;;;;;;2.75;1.63;;;21.80;41.00;;;;;;5048036;28;20029;-61
2023/11/18 12:56:25;;;;;;;1.55;1.13;;;21.80;41.00;;;;;;5034484;28;20025;-59
2023/11/18 12:58:51;;;;;;;1.58;1.15;;;21.80;41.00;;;;;;5044630;28;20025;-57
2023/11/18 13:01:19;;;;;;;3.35;1.40;;;21.80;41.10;;;;;;5036396;28;20380;-61
2023/11/18 13:03:45;;;;;;;3.00;1.50;;;21.70;41.10;;;;;;5041734;28;20026;-59
2023/11/18 13:06:14;;;;;;;1.90;1.10;;;21.70;41.20;;;;;;5033421;28;20029;-58
2023/11/18 13:08:41;;;;;;;1.80;1.20;;;21.70;41.30;;;;;;5037484;28;20168;-59
2023/11/18 13:11:12;;;;;;;2.25;1.02;;;21.70;41.30;;;;;;5045204;28;20037;-59
2023/11/18 13:13:39;;;;;;;2.08;1.23;;;21.70;41.40;;;;;;5033106;28;20049;-58